Historyczne dane pomiarowe

Dodano dane terminowe – wersja testowa.

Dane z okresu 1951-2019

Wersja bazy: 1.34 [2019-03-16, lista zmian], aktualizacja planowana na 2019-04-15

Dane meteo z obszaru Polski uzyskane na podstawie danych udostępnionych przez Instytut Meteorologii i Gospodarki Wodnej – Państwowy Instytut Badawczy.

 

Wybierz Datę:    

       

TemperaturaWilgotnośćZachmurzenieWiatrCiśnienieWidzialnośćZjawiska
 Data    tng td wb rh cc ccl cl cm ch dir g1 g2 mslp ppp      
1999-08-07 00:00:00 14.0--- 13.2 13.595wxwx0wx--1008.6 998.6 0.0---wx
1999-08-07 01:00:00 13.3--- 12.4 12.895wxwx0wx--1008.7 998.6----wx
1999-08-07 02:00:00 12.1--- 11.7 11.998wxwx0wx--1008.5 998.4----wx
1999-08-07 03:00:00 12.2--- 11.9 12.098wxwxwxwx0wx--1008.2 998.1----wx
1999-08-07 04:00:00 11.9--- 11.4 11.697wxwxwx0wx--1008.0 997.9----wx
1999-08-07 05:00:00 14.0--- 13.3 13.696wxwxwx0wx--1007.8 997.8----wx
1999-08-07 06:00:00 17.9--- 14.8 16.082wxwx0wx--1007.7 997.8 0.0---wx
1999-08-07 07:00:00 22.3--- 15.4 17.965wxwx2wx--1007.7 998.0----wx
1999-08-07 08:00:00 24.6--- 13.7 17.851wxwx1wx--1007.8 998.1----wx
1999-08-07 09:00:00 26.0--- 14.7 18.850wxwxwx2wx--1007.6 998.0----wx
1999-08-07 10:00:00 27.4--- 12.9 18.441wxwxwx3wx--1007.2 997.6----wx
1999-08-07 11:00:00 28.1--- 12.9 18.639wxwxwxwx2wx--1006.6 997.1----wx
1999-08-07 12:00:00 29.0--- 10.4 17.832wxwxwxwx2wx--1006.2 996.7 0.0---wx
1999-08-07 13:00:00 29.4--- 10.6 18.031wxwxwxwx1wx--1005.7 996.2----wx
1999-08-07 14:00:00 30.1--- 11.6 18.732wxwxwxwx2wx--1005.3 995.8----wx
1999-08-07 15:00:00 30.5--- 10.4 18.329wxwxwxwxwx2wx--1004.7 995.3----wx
1999-08-07 16:00:00 29.2--- 10.9 18.132wxwxwxwxwx1wx--1004.6 995.1----wx
1999-08-07 17:00:00 27.5--- 13.5 18.742wxwxwx1wx--1004.4 994.9----wx
1999-08-07 18:00:00 25.9--- 17.3 20.259wxwxwx0wx--1004.4 994.8 0.0---wx
1999-08-07 19:00:00 24.7--- 16.7 19.561wxwxwx1wx--1004.5 994.9----wx
1999-08-07 20:00:00 24.3--- 15.2 18.557wxwxwxwx0wx--1004.8 995.2----wx
1999-08-07 21:00:00 23.1--- 15.2 18.161wxwxwxwx2wx--1004.9 995.2----wx
1999-08-07 22:00:00 20.1--- 17.0 18.182wxwxwxwx3wx--1005.4 995.6----wx
1999-08-07 23:00:00 19.0--- 17.9 18.394wxwxwxwx2wx--1004.6 994.8----wxw1

 

Źródłem pochodzenia danych jest Instytut Meteorologii i Gospodarki Wodnej – Państwowy Instytut Badawczy. Dane Instytutu Meteorologii i Gospodarki Wodnej – Państwowego Instytutu Badawczego zostały przetworzone.

Dane źródłowe można odnaleźć na stronie https://dane.imgw.pl